sensor_id;sensor_type;location;lat;lon;timestamp;pressure;altitude;pressure_sealevel;temperature;humidity
20015;BME280;61787;42.022;23.078;2024-01-07T00:00:33;95228.63;;;12.44;61.02
20015;BME280;61787;42.022;23.078;2024-01-07T00:01:35;95225.28;;;12.49;61.00
20015;BME280;61787;42.022;23.078;2024-01-07T00:02:37;95219.06;;;12.48;60.84
20015;BME280;61787;42.022;23.078;2024-01-07T00:03:42;95228.34;;;12.51;61.01
20015;BME280;61787;42.022;23.078;2024-01-07T00:04:44;95214.34;;;12.49;61.66
20015;BME280;61787;42.022;23.078;2024-01-07T00:05:45;95202.22;;;12.50;59.70
20015;BME280;61787;42.022;23.078;2024-01-07T00:06:48;95208.59;;;12.47;59.58
20015;BME280;61787;42.022;23.078;2024-01-07T00:07:50;95205.25;;;12.43;61.22
20015;BME280;61787;42.022;23.078;2024-01-07T00:08:52;95193.72;;;12.38;61.95
20015;BME280;61787;42.022;23.078;2024-01-07T00:09:53;95184.59;;;12.32;62.59
20015;BME280;61787;42.022;23.078;2024-01-07T00:10:55;95179.75;;;12.36;62.63
20015;BME280;61787;42.022;23.078;2024-01-07T00:11:58;95192.19;;;12.37;62.86
20015;BME280;61787;42.022;23.078;2024-01-07T00:12:59;95187.59;;;12.25;63.15
20015;BME280;61787;42.022;23.078;2024-01-07T00:14:02;95198.38;;;12.29;62.66
20015;BME280;61787;42.022;23.078;2024-01-07T00:15:04;95192.19;;;12.28;62.62
20015;BME280;61787;42.022;23.078;2024-01-07T00:16:05;95196.69;;;12.22;63.14
20015;BME280;61787;42.022;23.078;2024-01-07T00:17:09;95197.03;;;12.24;63.18
20015;BME280;61787;42.022;23.078;2024-01-07T00:18:10;95202.50;;;12.24;63.33
20015;BME280;61787;42.022;23.078;2024-01-07T00:19:12;95183.03;;;12.22;63.64
20015;BME280;61787;42.022;23.078;2024-01-07T00:20:14;95178.81;;;12.21;63.75
20015;BME280;61787;42.022;23.078;2024-01-07T00:21:16;95186.41;;;12.26;63.52
20015;BME280;61787;42.022;23.078;2024-01-07T00:22:17;95187.31;;;12.23;63.58
20015;BME280;61787;42.022;23.078;2024-01-07T00:23:20;95173.34;;;12.21;63.76
20015;BME280;61787;42.022;23.078;2024-01-07T00:24:22;95170.31;;;12.19;63.71
20015;BME280;61787;42.022;23.078;2024-01-07T00:25:23;95169.22;;;12.26;61.58
20015;BME280;61787;42.022;23.078;2024-01-07T00:26:25;95172.91;;;12.22;60.89
20015;BME280;61787;42.022;23.078;2024-01-07T00:27:27;95159.53;;;12.34;59.94
20015;BME280;61787;42.022;23.078;2024-01-07T00:28:28;95161.06;;;12.35;59.49
20015;BME280;61787;42.022;23.078;2024-01-07T00:29:30;95161.69;;;12.39;59.54
20015;BME280;61787;42.022;23.078;2024-01-07T00:30:32;95160.31;;;12.44;59.24
20015;BME280;61787;42.022;23.078;2024-01-07T00:31:34;95159.09;;;12.45;59.26
20015;BME280;61787;42.022;23.078;2024-01-07T00:32:35;95162.13;;;12.47;60.42
20015;BME280;61787;42.022;23.078;2024-01-07T00:33:37;95171.69;;;12.42;61.47
20015;BME280;61787;42.022;23.078;2024-01-07T00:34:39;95161.53;;;12.43;61.53
20015;BME280;61787;42.022;23.078;2024-01-07T00:35:41;95165.75;;;12.34;62.15
20015;BME280;61787;42.022;23.078;2024-01-07T00:36:42;95160.91;;;12.29;62.84
20015;BME280;61787;42.022;23.078;2024-01-07T00:37:44;95148.75;;;12.21;63.45
20015;BME280;61787;42.022;23.078;2024-01-07T00:38:46;95149.66;;;12.18;63.76
20015;BME280;61787;42.022;23.078;2024-01-07T00:39:47;95146.94;;;12.18;63.83
20015;BME280;61787;42.022;23.078;2024-01-07T00:40:49;95155.41;;;12.11;64.32
20015;BME280;61787;42.022;23.078;2024-01-07T00:41:50;95147.81;;;12.15;64.58
20015;BME280;61787;42.022;23.078;2024-01-07T00:42:52;95156.34;;;12.17;64.36
20015;BME280;61787;42.022;23.078;2024-01-07T00:43:54;95146.03;;;12.21;64.37
20015;BME280;61787;42.022;23.078;2024-01-07T00:44:55;95152.25;;;12.21;64.58
20015;BME280;61787;42.022;23.078;2024-01-07T00:45:57;95145.56;;;12.13;64.37
20015;BME280;61787;42.022;23.078;2024-01-07T00:46:59;95137.03;;;12.11;64.01
20015;BME280;61787;42.022;23.078;2024-01-07T00:48:00;95127.81;;;12.09;63.92
20015;BME280;61787;42.022;23.078;2024-01-07T00:49:02;95125.22;;;12.05;63.92
20015;BME280;61787;42.022;23.078;2024-01-07T00:50:04;95117.94;;;12.11;63.86
20015;BME280;61787;42.022;23.078;2024-01-07T00:51:06;95122.50;;;12.05;63.41
20015;BME280;61787;42.022;23.078;2024-01-07T00:52:08;95123.25;;;12.06;63.49
20015;BME280;61787;42.022;23.078;2024-01-07T00:53:10;95107.63;;;12.06;63.58
20015;BME280;61787;42.022;23.078;2024-01-07T00:54:12;95108.53;;;12.03;63.61
20015;BME280;61787;42.022;23.078;2024-01-07T00:55:13;95104.56;;;12.04;63.11
20015;BME280;61787;42.022;23.078;2024-01-07T00:56:15;95096.06;;;12.02;63.22
20015;BME280;61787;42.022;23.078;2024-01-07T00:57:17;95085.75;;;11.97;63.24
20015;BME280;61787;42.022;23.078;2024-01-07T00:58:18;95090.75;;;11.98;63.23
20015;BME280;61787;42.022;23.078;2024-01-07T00:59:20;95087.13;;;12.01;63.16
20015;BME280;61787;42.022;23.078;2024-01-07T01:00:22;95085.44;;;11.95;62.86
20015;BME280;61787;42.022;23.078;2024-01-07T01:01:24;95092.75;;;11.98;62.76
20015;BME280;61787;42.022;23.078;2024-01-07T01:02:25;95080.47;;;12.02;62.78
20015;BME280;61787;42.022;23.078;2024-01-07T01:03:27;95086.38;;;12.01;62.94
20015;BME280;61787;42.022;23.078;2024-01-07T01:04:29;95083.94;;;12.03;62.45
20015;BME280;61787;42.022;23.078;2024-01-07T01:05:30;95076.38;;;12.07;62.15
20015;BME280;61787;42.022;23.078;2024-01-07T01:06:32;95074.09;;;12.06;61.96
20015;BME280;61787;42.022;23.078;2024-01-07T01:07:34;95063.00;;;12.09;61.76
20015;BME280;61787;42.022;23.078;2024-01-07T01:08:36;95066.81;;;12.12;62.06
20015;BME280;61787;42.022;23.078;2024-01-07T01:09:37;95065.72;;;12.18;61.56
20015;BME280;61787;42.022;23.078;2024-01-07T01:10:40;95063.78;;;12.19;61.77
20015;BME280;61787;42.022;23.078;2024-01-07T01:11:42;95060.13;;;12.22;61.60
20015;BME280;61787;42.022;23.078;2024-01-07T01:12:43;95064.97;;;12.27;61.31
20015;BME280;61787;42.022;23.078;2024-01-07T01:13:45;95053.91;;;12.21;61.51
20015;BME280;61787;42.022;23.078;2024-01-07T01:14:47;95051.47;;;12.23;61.50
20015;BME280;61787;42.022;23.078;2024-01-07T01:15:48;95044.66;;;12.28;61.42
20015;BME280;61787;42.022;23.078;2024-01-07T01:16:50;95042.53;;;12.23;61.86
20015;BME280;61787;42.022;23.078;2024-01-07T01:17:51;95046.63;;;12.18;61.90
20015;BME280;61787;42.022;23.078;2024-01-07T01:18:54;95050.88;;;12.19;62.06
20015;BME280;61787;42.022;23.078;2024-01-07T01:19:55;95052.06;;;12.18;62.02
20015;BME280;61787;42.022;23.078;2024-01-07T01:20:57;95048.59;;;12.18;62.19
20015;BME280;61787;42.022;23.078;2024-01-07T01:21:59;95054.06;;;12.18;62.24
20015;BME280;61787;42.022;23.078;2024-01-07T01:23:01;95053.16;;;12.21;62.19
20015;BME280;61787;42.022;23.078;2024-01-07T01:24:03;95040.41;;;12.09;62.51
20015;BME280;61787;42.022;23.078;2024-01-07T01:25:05;95032.97;;;12.09;62.60
20015;BME280;61787;42.022;23.078;2024-01-07T01:26:07;95028.44;;;12.06;62.76
20015;BME280;61787;42.022;23.078;2024-01-07T01:27:08;95032.22;;;12.09;62.53
20015;BME280;61787;42.022;23.078;2024-01-07T01:28:10;95039.34;;;12.06;62.76
20015;BME280;61787;42.022;23.078;2024-01-07T01:29:12;95038.13;;;12.07;62.66
20015;BME280;61787;42.022;23.078;2024-01-07T01:30:13;95040.72;;;12.11;62.38
20015;BME280;61787;42.022;23.078;2024-01-07T01:31:15;95042.84;;;12.16;62.11
20015;BME280;61787;42.022;23.078;2024-01-07T01:32:17;95041.00;;;12.13;62.23
20015;BME280;61787;42.022;23.078;2024-01-07T01:33:19;95029.19;;;12.07;62.59
20015;BME280;61787;42.022;23.078;2024-01-07T01:34:21;95029.63;;;12.05;62.84
20015;BME280;61787;42.022;23.078;2024-01-07T01:35:22;95027.06;;;12.11;62.42
20015;BME280;61787;42.022;23.078;2024-01-07T01:36:24;95025.84;;;12.12;62.03
20015;BME280;61787;42.022;23.078;2024-01-07T01:37:27;95025.84;;;12.12;62.00
20015;BME280;61787;42.022;23.078;2024-01-07T01:38:28;95038.13;;;12.16;61.70
20015;BME280;61787;42.022;23.078;2024-01-07T01:39:30;95042.84;;;12.16;61.83
20015;BME280;61787;42.022;23.078;2024-01-07T01:40:32;95047.69;;;12.21;61.66
20015;BME280;61787;42.022;23.078;2024-01-07T01:41:33;95042.22;;;12.21;61.60
20015;BME280;61787;42.022;23.078;2024-01-07T01:42:35;95048.44;;;12.21;61.51
20015;BME280;61787;42.022;23.078;2024-01-07T01:43:37;95056.78;;;12.18;61.86
20015;BME280;61787;42.022;23.078;2024-01-07T01:44:38;95061.19;;;12.15;62.06
20015;BME280;61787;42.022;23.078;2024-01-07T01:45:40;95064.38;;;12.14;62.16
20015;BME280;61787;42.022;23.078;2024-01-07T01:46:42;95074.88;;;12.15;62.07
20015;BME280;61787;42.022;23.078;2024-01-07T01:47:46;95094.59;;;12.19;62.70
20015;BME280;61787;42.022;23.078;2024-01-07T01:48:49;95109.13;;;12.07;63.10
20015;BME280;61787;42.022;23.078;2024-01-07T01:49:51;95113.84;;;12.07;63.42
20015;BME280;61787;42.022;23.078;2024-01-07T01:50:54;95118.38;;;12.00;64.18
20015;BME280;61787;42.022;23.078;2024-01-07T01:51:59;95120.94;;;11.95;64.30
20015;BME280;61787;42.022;23.078;2024-01-07T01:53:01;95129.28;;;11.91;64.74
20015;BME280;61787;42.022;23.078;2024-01-07T01:54:02;95121.09;;;11.91;65.11
20015;BME280;61787;42.022;23.078;2024-01-07T01:55:04;95125.81;;;11.91;64.96
20015;BME280;61787;42.022;23.078;2024-01-07T01:56:06;95138.97;;;11.83;65.33
20015;BME280;61787;42.022;23.078;2024-01-07T01:57:15;95140.47;;;11.84;66.08
20015;BME280;61787;42.022;23.078;2024-01-07T01:58:18;95141.19;;;11.75;66.79
20015;BME280;61787;42.022;23.078;2024-01-07T01:59:20;95155.81;;;11.50;68.05
20015;BME280;61787;42.022;23.078;2024-01-07T02:00:22;95152.69;;;11.20;63.34
20015;BME280;61787;42.022;23.078;2024-01-07T02:01:24;95147.78;;;11.15;62.95
20015;BME280;61787;42.022;23.078;2024-01-07T02:02:26;95142.00;;;11.04;64.23
20015;BME280;61787;42.022;23.078;2024-01-07T02:03:28;95139.34;;;10.91;65.15
20015;BME280;61787;42.022;23.078;2024-01-07T02:04:29;95148.28;;;10.69;65.89
20015;BME280;61787;42.022;23.078;2024-01-07T02:05:31;95152.41;;;10.52;66.20
20015;BME280;61787;42.022;23.078;2024-01-07T02:06:33;95153.00;;;10.34;66.76
20015;BME280;61787;42.022;23.078;2024-01-07T02:07:35;95152.31;;;10.30;67.44
20015;BME280;61787;42.022;23.078;2024-01-07T02:08:38;95153.28;;;10.14;67.77
20015;BME280;61787;42.022;23.078;2024-01-07T02:09:40;95157.53;;;10.02;67.79
20015;BME280;61787;42.022;23.078;2024-01-07T02:10:41;95162.91;;;9.93;68.83
20015;BME280;61787;42.022;23.078;2024-01-07T02:11:43;95166.72;;;9.83;68.88
20015;BME280;61787;42.022;23.078;2024-01-07T02:12:45;95165.97;;;9.69;69.42
20015;BME280;61787;42.022;23.078;2024-01-07T02:13:47;95163.38;;;9.66;69.33
20015;BME280;61787;42.022;23.078;2024-01-07T02:14:49;95165.88;;;9.60;69.34
20015;BME280;61787;42.022;23.078;2024-01-07T02:15:51;95170.75;;;9.52;69.90
20015;BME280;61787;42.022;23.078;2024-01-07T02:16:52;95164.56;;;9.52;70.00
20015;BME280;61787;42.022;23.078;2024-01-07T02:17:54;95160.66;;;9.53;70.01
20015;BME280;61787;42.022;23.078;2024-01-07T02:18:56;95163.38;;;9.53;70.11
20015;BME280;61787;42.022;23.078;2024-01-07T02:19:57;95154.31;;;9.56;69.36
20015;BME280;61787;42.022;23.078;2024-01-07T02:20:59;95168.72;;;9.57;69.02
20015;BME280;61787;42.022;23.078;2024-01-07T02:22:01;95170.00;;;9.52;69.14
20015;BME280;61787;42.022;23.078;2024-01-07T02:23:04;95174.16;;;9.57;68.91
20015;BME280;61787;42.022;23.078;2024-01-07T02:24:06;95170.31;;;9.54;69.82
20015;BME280;61787;42.022;23.078;2024-01-07T02:25:07;95165.19;;;9.56;69.74
20015;BME280;61787;42.022;23.078;2024-01-07T02:26:10;95164.66;;;9.61;69.55
20015;BME280;61787;42.022;23.078;2024-01-07T02:27:12;95180.22;;;9.61;69.28
20015;BME280;61787;42.022;23.078;2024-01-07T02:28:13;95184.03;;;9.63;69.05
20015;BME280;61787;42.022;23.078;2024-01-07T02:29:15;95185.78;;;9.57;69.19
20015;BME280;61787;42.022;23.078;2024-01-07T02:30:16;95177.31;;;9.55;69.26
20015;BME280;61787;42.022;23.078;2024-01-07T02:31:18;95177.41;;;9.51;69.01
20015;BME280;61787;42.022;23.078;2024-01-07T02:32:20;95183.81;;;9.45;69.31
20015;BME280;61787;42.022;23.078;2024-01-07T02:33:22;95187.28;;;9.45;69.42
20015;BME280;61787;42.022;23.078;2024-01-07T02:34:24;95184.78;;;9.38;69.58
20015;BME280;61787;42.022;23.078;2024-01-07T02:35:26;95179.03;;;9.36;70.12
20015;BME280;61787;42.022;23.078;2024-01-07T02:36:27;95174.13;;;9.31;70.20
20015;BME280;61787;42.022;23.078;2024-01-07T02:37:29;95180.00;;;9.29;70.18
20015;BME280;61787;42.022;23.078;2024-01-07T02:38:31;95180.56;;;9.24;70.67
20015;BME280;61787;42.022;23.078;2024-01-07T02:39:32;95172.63;;;9.30;70.92
20015;BME280;61787;42.022;23.078;2024-01-07T02:40:34;95163.56;;;9.33;71.06
20015;BME280;61787;42.022;23.078;2024-01-07T02:41:36;95154.97;;;9.34;70.77
20015;BME280;61787;42.022;23.078;2024-01-07T02:42:37;95154.97;;;9.34;71.08
20015;BME280;61787;42.022;23.078;2024-01-07T02:43:39;95151.06;;;9.35;70.95
20015;BME280;61787;42.022;23.078;2024-01-07T02:44:41;95148.91;;;9.30;71.23
20015;BME280;61787;42.022;23.078;2024-01-07T02:45:42;95146.72;;;9.38;71.22
20015;BME280;61787;42.022;23.078;2024-01-07T02:46:44;95147.72;;;9.44;71.34
20015;BME280;61787;42.022;23.078;2024-01-07T02:47:47;95147.59;;;9.48;70.68
20015;BME280;61787;42.022;23.078;2024-01-07T02:48:49;95144.56;;;9.46;71.05
20015;BME280;61787;42.022;23.078;2024-01-07T02:49:51;95131.28;;;9.48;70.91
20015;BME280;61787;42.022;23.078;2024-01-07T02:50:52;95126.38;;;9.43;71.00
20015;BME280;61787;42.022;23.078;2024-01-07T02:51:54;95133.44;;;9.40;71.18
20015;BME280;61787;42.022;23.078;2024-01-07T02:52:56;95121.38;;;9.41;71.46
20015;BME280;61787;42.022;23.078;2024-01-07T02:53:57;95115.41;;;9.46;71.25
20015;BME280;61787;42.022;23.078;2024-01-07T02:54:59;95117.88;;;9.53;71.24
20015;BME280;61787;42.022;23.078;2024-01-07T02:56:03;95113.41;;;9.60;70.56
20015;BME280;61787;42.022;23.078;2024-01-07T02:57:05;95114.50;;;9.62;70.45
20015;BME280;61787;42.022;23.078;2024-01-07T02:58:06;95114.06;;;9.64;70.23
20015;BME280;61787;42.022;23.078;2024-01-07T02:59:08;95108.88;;;9.57;70.29
20015;BME280;61787;42.022;23.078;2024-01-07T03:00:10;95108.09;;;9.56;70.72
20015;BME280;61787;42.022;23.078;2024-01-07T03:01:12;95104.19;;;9.57;70.63
20015;BME280;61787;42.022;23.078;2024-01-07T03:02:14;95104.81;;;9.61;70.47
20015;BME280;61787;42.022;23.078;2024-01-07T03:03:16;95091.41;;;9.67;70.58
20015;BME280;61787;42.022;23.078;2024-01-07T03:04:17;95098.72;;;9.70;70.59
20015;BME280;61787;42.022;23.078;2024-01-07T03:05:19;95097.41;;;9.74;70.60
20015;BME280;61787;42.022;23.078;2024-01-07T03:06:21;95099.78;;;9.72;70.50
20015;BME280;61787;42.022;23.078;2024-01-07T03:07:22;95095.13;;;9.73;70.58
20015;BME280;61787;42.022;23.078;2024-01-07T03:08:24;95094.09;;;9.80;70.62
20015;BME280;61787;42.022;23.078;2024-01-07T03:09:25;95099.00;;;9.85;70.54
20015;BME280;61787;42.022;23.078;2024-01-07T03:10:27;95100.72;;;9.91;70.36
20015;BME280;61787;42.022;23.078;2024-01-07T03:11:29;95098.94;;;9.98;70.29
20015;BME280;61787;42.022;23.078;2024-01-07T03:12:31;95091.00;;;10.03;69.91
20015;BME280;61787;42.022;23.078;2024-01-07T03:13:32;95081.63;;;10.04;69.81
20015;BME280;61787;42.022;23.078;2024-01-07T03:14:35;95086.94;;;10.08;69.97
20015;BME280;61787;42.022;23.078;2024-01-07T03:15:36;95090.31;;;10.12;69.76
20015;BME280;61787;42.022;23.078;2024-01-07T03:16:39;95087.59;;;10.12;69.56
20015;BME280;61787;42.022;23.078;2024-01-07T03:17:41;95077.03;;;10.14;69.30
20015;BME280;61787;42.022;23.078;2024-01-07T03:18:42;95085.63;;;10.12;69.21
20015;BME280;61787;42.022;23.078;2024-01-07T03:19:44;95082.00;;;10.16;69.27
20015;BME280;61787;42.022;23.078;2024-01-07T03:20:46;95087.47;;;10.16;69.18
20015;BME280;61787;42.022;23.078;2024-01-07T03:21:48;95083.09;;;10.18;69.28
20015;BME280;61787;42.022;23.078;2024-01-07T03:22:50;95079.50;;;10.21;69.13
20015;BME280;61787;42.022;23.078;2024-01-07T03:23:52;95084.06;;;10.24;69.12
20015;BME280;61787;42.022;23.078;2024-01-07T03:24:53;95069.13;;;10.29;69.05
20015;BME280;61787;42.022;23.078;2024-01-07T03:25:58;95064.34;;;10.33;69.29
20015;BME280;61787;42.022;23.078;2024-01-07T03:26:59;95051.81;;;10.36;68.93
20015;BME280;61787;42.022;23.078;2024-01-07T03:28:01;95049.41;;;10.38;68.84
20015;BME280;61787;42.022;23.078;2024-01-07T03:29:03;95048.31;;;10.35;68.79
20015;BME280;61787;42.022;23.078;2024-01-07T03:30:05;95040.13;;;10.35;68.93
20015;BME280;61787;42.022;23.078;2024-01-07T03:31:09;95040.13;;;10.35;68.96
20015;BME280;61787;42.022;23.078;2024-01-07T03:32:11;95036.22;;;10.36;68.84
20015;BME280;61787;42.022;23.078;2024-01-07T03:33:12;95032.75;;;10.36;69.06
20015;BME280;61787;42.022;23.078;2024-01-07T03:34:15;95035.13;;;10.34;69.32
20015;BME280;61787;42.022;23.078;2024-01-07T03:35:16;95033.94;;;10.35;69.22
20015;BME280;61787;42.022;23.078;2024-01-07T03:36:18;95034.06;;;10.31;69.29
20015;BME280;61787;42.022;23.078;2024-01-07T03:37:20;95035.59;;;10.32;69.17
20015;BME280;61787;42.022;23.078;2024-01-07T03:38:22;95042.09;;;10.35;69.08
20015;BME280;61787;42.022;23.078;2024-01-07T03:39:23;95042.41;;;10.37;68.88
20015;BME280;61787;42.022;23.078;2024-01-07T03:40:25;95044.69;;;10.38;68.97
20015;BME280;61787;42.022;23.078;2024-01-07T03:41:26;95041.53;;;10.40;68.78
20015;BME280;61787;42.022;23.078;2024-01-07T03:42:28;95049.25;;;10.41;68.79
20015;BME280;61787;42.022;23.078;2024-01-07T03:43:30;95058.75;;;10.37;68.94
20015;BME280;61787;42.022;23.078;2024-01-07T03:44:31;95052.56;;;10.36;68.85
20015;BME280;61787;42.022;23.078;2024-01-07T03:45:33;95062.69;;;10.36;68.91
20015;BME280;61787;42.022;23.078;2024-01-07T03:46:35;95064.00;;;10.31;69.02
20015;BME280;61787;42.022;23.078;2024-01-07T03:47:36;95067.41;;;10.22;69.15
20015;BME280;61787;42.022;23.078;2024-01-07T03:48:38;95070.44;;;10.24;69.28
20015;BME280;61787;42.022;23.078;2024-01-07T03:49:40;95067.72;;;10.24;69.22
20015;BME280;61787;42.022;23.078;2024-01-07T03:50:42;95078.41;;;10.19;69.42
20015;BME280;61787;42.022;23.078;2024-01-07T03:51:44;95077.59;;;10.09;69.91
20015;BME280;61787;42.022;23.078;2024-01-07T03:52:45;95078.59;;;10.02;70.24
20015;BME280;61787;42.022;23.078;2024-01-07T03:53:47;95076.88;;;9.96;70.32
20015;BME280;61787;42.022;23.078;2024-01-07T03:54:48;95076.97;;;9.92;70.51
20015;BME280;61787;42.022;23.078;2024-01-07T03:55:50;95080.16;;;9.90;70.60
20015;BME280;61787;42.022;23.078;2024-01-07T03:56:52;95073.06;;;9.93;70.44
20015;BME280;61787;42.022;23.078;2024-01-07T03:57:53;95081.25;;;9.93;70.38
20015;BME280;61787;42.022;23.078;2024-01-07T03:58:55;95073.63;;;9.88;70.17
20015;BME280;61787;42.022;23.078;2024-01-07T03:59:57;95075.84;;;9.80;70.42
20015;BME280;61787;42.022;23.078;2024-01-07T04:00:58;95069.97;;;9.82;70.07
20015;BME280;61787;42.022;23.078;2024-01-07T04:02:00;95079.63;;;9.83;69.92
20015;BME280;61787;42.022;23.078;2024-01-07T04:03:02;95073.13;;;9.80;70.07
20015;BME280;61787;42.022;23.078;2024-01-07T04:04:04;95075.19;;;9.76;70.37
20015;BME280;61787;42.022;23.078;2024-01-07T04:05:06;95083.47;;;9.72;70.27
20015;BME280;61787;42.022;23.078;2024-01-07T04:06:08;95079.97;;;9.72;70.53
20015;BME280;61787;42.022;23.078;2024-01-07T04:07:10;95078.47;;;9.71;70.54
20015;BME280;61787;42.022;23.078;2024-01-07T04:08:12;95080.84;;;9.69;70.58
20015;BME280;61787;42.022;23.078;2024-01-07T04:09:13;95078.78;;;9.73;70.55
20015;BME280;61787;42.022;23.078;2024-01-07T04:10:18;95078.25;;;9.65;70.81
20015;BME280;61787;42.022;23.078;2024-01-07T04:11:20;95076.75;;;9.64;70.81
20015;BME280;61787;42.022;23.078;2024-01-07T04:12:21;95073.59;;;9.66;71.08
20015;BME280;61787;42.022;23.078;2024-01-07T04:13:23;95068.16;;;9.66;71.12
20015;BME280;61787;42.022;23.078;2024-01-07T04:14:25;95070.44;;;9.67;71.02
20015;BME280;61787;42.022;23.078;2024-01-07T04:15:29;95068.78;;;9.70;70.96
20015;BME280;61787;42.022;23.078;2024-01-07T04:16:30;95073.47;;;9.69;71.35
20015;BME280;61787;42.022;23.078;2024-01-07T04:17:32;95073.47;;;9.69;71.13
20015;BME280;61787;42.022;23.078;2024-01-07T04:18:34;95075.88;;;9.67;71.29
20015;BME280;61787;42.022;23.078;2024-01-07T04:19:37;95071.19;;;9.68;71.28
20015;BME280;61787;42.022;23.078;2024-01-07T04:20:39;95076.50;;;9.71;71.48
20015;BME280;61787;42.022;23.078;2024-01-07T04:21:45;95074.09;;;9.73;71.43
20015;BME280;61787;42.022;23.078;2024-01-07T04:22:47;95068.09;;;9.79;71.15
20015;BME280;61787;42.022;23.078;2024-01-07T04:23:49;95062.22;;;9.80;71.20
20015;BME280;61787;42.022;23.078;2024-01-07T04:24:51;95059.81;;;9.82;71.18
20015;BME280;61787;42.022;23.078;2024-01-07T04:25:52;95060.59;;;9.83;71.15
20015;BME280;61787;42.022;23.078;2024-01-07T04:26:54;95059.81;;;9.82;71.33
20015;BME280;61787;42.022;23.078;2024-01-07T04:27:55;95046.66;;;9.81;71.27
20015;BME280;61787;42.022;23.078;2024-01-07T04:28:57;95052.84;;;9.81;71.23
20015;BME280;61787;42.022;23.078;2024-01-07T04:29:59;95049.81;;;9.79;71.47
20015;BME280;61787;42.022;23.078;2024-01-07T04:31:01;95049.94;;;9.75;71.24
20015;BME280;61787;42.022;23.078;2024-01-07T04:32:03;95044.41;;;9.66;71.65
20015;BME280;61787;42.022;23.078;2024-01-07T04:33:04;95051.94;;;9.62;71.66
20015;BME280;61787;42.022;23.078;2024-01-07T04:34:06;95059.00;;;9.60;71.96
20015;BME280;61787;42.022;23.078;2024-01-07T04:35:08;95055.97;;;9.58;71.96
20015;BME280;61787;42.022;23.078;2024-01-07T04:36:10;95058.47;;;9.52;72.23
20015;BME280;61787;42.022;23.078;2024-01-07T04:37:11;95064.88;;;9.58;72.14
20015;BME280;61787;42.022;23.078;2024-01-07T04:38:14;95055.84;;;9.61;71.71
20015;BME280;61787;42.022;23.078;2024-01-07T04:39:15;95056.84;;;9.67;71.89
20015;BME280;61787;42.022;23.078;2024-01-07T04:40:17;95060.19;;;9.71;71.78
20015;BME280;61787;42.022;23.078;2024-01-07T04:41:19;95046.25;;;9.69;71.68
20015;BME280;61787;42.022;23.078;2024-01-07T04:42:20;95054.75;;;9.71;71.65
20015;BME280;61787;42.022;23.078;2024-01-07T04:43:22;95047.25;;;9.63;71.65
20015;BME280;61787;42.022;23.078;2024-01-07T04:44:23;95051.03;;;9.65;72.12
20015;BME280;61787;42.022;23.078;2024-01-07T04:45:25;95043.53;;;9.69;71.85
20015;BME280;61787;42.022;23.078;2024-01-07T04:46:27;95041.78;;;9.75;71.61
20015;BME280;61787;42.022;23.078;2024-01-07T04:47:33;95050.25;;;9.78;71.54
20015;BME280;61787;42.022;23.078;2024-01-07T04:48:37;95046.78;;;9.77;71.42
20015;BME280;61787;42.022;23.078;2024-01-07T04:49:39;95048.31;;;9.78;71.39
20015;BME280;61787;42.022;23.078;2024-01-07T04:50:41;95050.91;;;9.82;71.19
20015;BME280;61787;42.022;23.078;2024-01-07T04:51:43;95053.50;;;9.85;71.03
20015;BME280;61787;42.022;23.078;2024-01-07T04:52:47;95054.38;;;9.82;71.03
20015;BME280;61787;42.022;23.078;2024-01-07T04:53:49;95049.06;;;9.79;70.94
20015;BME280;61787;42.022;23.078;2024-01-07T04:54:55;95059.31;;;9.74;71.21
20015;BME280;61787;42.022;23.078;2024-01-07T04:55:57;95055.72;;;9.65;71.55
20015;BME280;61787;42.022;23.078;2024-01-07T04:56:58;95062.84;;;9.49;72.33
20015;BME280;61787;42.022;23.078;2024-01-07T04:58:00;95063.06;;;9.29;73.10
20015;BME280;61787;42.022;23.078;2024-01-07T04:59:02;95074.38;;;9.15;73.61
20015;BME280;61787;42.022;23.078;2024-01-07T05:00:05;95074.75;;;9.17;73.55
20015;BME280;61787;42.022;23.078;2024-01-07T05:01:06;95069.19;;;9.21;73.49
20015;BME280;61787;42.022;23.078;2024-01-07T05:02:08;95070.25;;;9.23;73.15
20015;BME280;61787;42.022;23.078;2024-01-07T05:03:10;95062.97;;;9.33;72.77
20015;BME280;61787;42.022;23.078;2024-01-07T05:04:12;95062.09;;;9.36;71.94
20015;BME280;61787;42.022;23.078;2024-01-07T05:05:14;95076.00;;;9.38;72.20
20015;BME280;61787;42.022;23.078;2024-01-07T05:06:15;95068.94;;;9.41;71.51
20015;BME280;61787;42.022;23.078;2024-01-07T05:07:17;95056.53;;;9.40;71.62
20015;BME280;61787;42.022;23.078;2024-01-07T05:08:19;95067.94;;;9.47;71.56
20015;BME280;61787;42.022;23.078;2024-01-07T05:09:25;95059.59;;;9.42;71.01
20015;BME280;61787;42.022;23.078;2024-01-07T05:10:26;95065.91;;;9.39;70.24
20015;BME280;61787;42.022;23.078;2024-01-07T05:11:28;95074.94;;;9.35;69.72
20015;BME280;61787;42.022;23.078;2024-01-07T05:12:30;95068.97;;;9.28;68.86
20015;BME280;61787;42.022;23.078;2024-01-07T05:13:31;95056.13;;;9.28;68.98
20015;BME280;61787;42.022;23.078;2024-01-07T05:14:33;95052.97;;;9.30;68.84
20015;BME280;61787;42.022;23.078;2024-01-07T05:15:35;95067.22;;;9.34;69.10
20015;BME280;61787;42.022;23.078;2024-01-07T05:16:36;95055.78;;;9.39;69.55
20015;BME280;61787;42.022;23.078;2024-01-07T05:17:38;95061.44;;;9.45;69.48
20015;BME280;61787;42.022;23.078;2024-01-07T05:18:40;95061.66;;;9.38;69.38
20015;BME280;61787;42.022;23.078;2024-01-07T05:19:41;95053.06;;;9.39;69.65
20015;BME280;61787;42.022;23.078;2024-01-07T05:20:43;95066.78;;;9.35;69.84
20015;BME280;61787;42.022;23.078;2024-01-07T05:21:45;95065.56;;;9.36;69.69
20015;BME280;61787;42.022;23.078;2024-01-07T05:22:47;95062.72;;;9.40;69.40
20015;BME280;61787;42.022;23.078;2024-01-07T05:23:49;95066.88;;;9.45;69.23
20015;BME280;61787;42.022;23.078;2024-01-07T05:24:50;95061.97;;;9.40;69.42
20015;BME280;61787;42.022;23.078;2024-01-07T05:25:52;95061.97;;;9.40;69.50